createdAt,value
2023-01-23T00:00:19.895Z,60.43
2023-01-23T00:02:49.233Z,60.51
2023-01-23T00:05:18.191Z,60.33
2023-01-23T00:07:47.762Z,60.60
2023-01-23T00:10:16.869Z,60.33
2023-01-23T00:12:46.938Z,60.59
2023-01-23T00:15:16.977Z,60.62
2023-01-23T00:17:46.157Z,60.52
2023-01-23T00:20:15.490Z,60.64
2023-01-23T00:22:44.441Z,60.54
2023-01-23T00:25:13.341Z,60.53
2023-01-23T00:27:42.299Z,60.67
2023-01-23T00:30:11.837Z,60.53
2023-01-23T00:32:41.200Z,60.34
2023-01-23T00:35:10.246Z,60.39
2023-01-23T00:37:39.216Z,60.47
2023-01-23T00:40:09.300Z,60.36
2023-01-23T00:42:41.782Z,60.31
2023-01-23T00:45:11.049Z,60.22
2023-01-23T00:47:39.910Z,60.23
2023-01-23T00:50:09.336Z,60.55
2023-01-23T00:52:38.477Z,60.26
2023-01-23T00:55:08.118Z,60.46
2023-01-23T00:57:37.217Z,60.44
2023-01-23T01:00:07.505Z,60.74
2023-01-23T01:02:36.948Z,60.74
2023-01-23T01:05:06.188Z,60.66
2023-01-23T01:07:35.076Z,60.64
2023-01-23T01:10:05.050Z,60.63
2023-01-23T01:12:34.155Z,60.64
2023-01-23T01:15:03.426Z,60.61
2023-01-23T01:17:33.587Z,60.85
2023-01-23T01:20:03.178Z,60.72
2023-01-23T01:22:32.574Z,60.63
2023-01-23T01:25:01.577Z,60.48
2023-01-23T01:27:31.716Z,60.81
2023-01-23T01:30:00.581Z,60.58
2023-01-23T01:32:29.412Z,60.86
2023-01-23T01:34:58.226Z,61.04
2023-01-23T01:37:27.144Z,60.96
2023-01-23T01:39:56.197Z,60.99
2023-01-23T01:42:29.133Z,61.08
2023-01-23T01:44:58.017Z,61.12
2023-01-23T01:47:28.128Z,60.94
2023-01-23T01:50:02.396Z,60.99
2023-01-23T01:52:33.403Z,61.07
2023-01-23T01:55:05.130Z,60.98
2023-01-23T01:57:41.984Z,60.92
2023-01-23T02:00:20.516Z,61.17
2023-01-23T02:02:56.045Z,61.14
2023-01-23T02:05:32.252Z,61.25
2023-01-23T02:08:05.426Z,61.17
2023-01-23T02:10:36.881Z,61.51
2023-01-23T02:13:33.658Z,62.07
2023-01-23T02:16:15.032Z,62.77
2023-01-23T02:18:48.574Z,64.10
2023-01-23T02:21:25.402Z,64.39
2023-01-23T02:24:13.493Z,64.21
2023-01-23T02:26:45.589Z,63.91
2023-01-23T02:29:16.786Z,63.83
2023-01-23T02:31:53.519Z,63.83
2023-01-23T02:34:24.399Z,63.91
2023-01-23T02:36:54.100Z,63.76
2023-01-23T02:39:25.540Z,63.36
2023-01-23T02:41:57.086Z,64.10
2023-01-23T02:44:40.015Z,64.01
2023-01-23T02:47:13.158Z,62.98
2023-01-23T02:49:43.652Z,63.87
2023-01-23T02:52:13.792Z,63.15
2023-01-23T02:54:42.693Z,64.08
2023-01-23T02:57:12.580Z,63.83
2023-01-23T02:59:59.982Z,64.26
2023-01-23T03:02:30.099Z,64.42
2023-01-23T03:04:59.617Z,64.53
2023-01-23T03:07:31.936Z,62.99
2023-01-23T03:10:00.840Z,63.44
2023-01-23T03:12:29.854Z,63.16
2023-01-23T03:14:59.426Z,58.71
2023-01-23T03:17:29.505Z,57.35
2023-01-23T03:19:59.011Z,58.09
2023-01-23T03:22:28.408Z,58.16
2023-01-23T03:24:58.490Z,58.59
2023-01-23T03:27:27.325Z,58.60
2023-01-23T03:30:17.799Z,59.09
2023-01-23T03:32:47.023Z,59.90
2023-01-23T03:35:17.854Z,60.30
2023-01-23T03:37:50.655Z,60.40
2023-01-23T03:40:40.183Z,60.59
2023-01-23T03:43:11.413Z,60.93
2023-01-23T03:45:46.490Z,61.43
2023-01-23T03:48:15.379Z,60.88
2023-01-23T03:50:46.983Z,61.44
2023-01-23T03:53:15.892Z,61.00
2023-01-23T03:55:48.553Z,61.16
2023-01-23T03:58:18.392Z,61.09
2023-01-23T04:00:49.566Z,61.35
2023-01-23T04:03:18.817Z,61.55
2023-01-23T04:05:50.014Z,61.89
2023-01-23T04:08:19.660Z,62.02
2023-01-23T04:10:49.233Z,61.87
2023-01-23T04:13:18.678Z,62.27
2023-01-23T04:15:47.744Z,62.56
2023-01-23T04:18:17.919Z,62.20
2023-01-23T04:20:46.811Z,61.93
2023-01-23T04:23:15.807Z,62.45
2023-01-23T04:25:44.894Z,62.38
2023-01-23T04:28:16.309Z,62.37
2023-01-23T04:30:47.256Z,62.54
2023-01-23T04:33:22.079Z,62.39
2023-01-23T04:35:56.968Z,62.23
2023-01-23T04:38:30.384Z,62.52
2023-01-23T04:41:06.046Z,62.37
2023-01-23T04:43:39.169Z,62.23
2023-01-23T04:46:11.279Z,62.13
2023-01-23T04:48:55.463Z,62.62
2023-01-23T04:51:25.449Z,62.43
2023-01-23T04:53:54.319Z,62.64
2023-01-23T04:56:24.550Z,63.06
2023-01-23T04:58:54.463Z,63.24
2023-01-23T05:01:25.909Z,63.33
2023-01-23T05:04:04.117Z,62.97
2023-01-23T05:06:34.378Z,62.77
2023-01-23T05:09:03.555Z,63.12
2023-01-23T05:11:40.573Z,63.54
2023-01-23T05:14:11.815Z,63.45
2023-01-23T05:16:42.321Z,63.32
2023-01-23T05:19:21.333Z,62.99
2023-01-23T05:21:51.159Z,62.84
2023-01-23T05:24:23.014Z,63.57
2023-01-23T05:26:52.581Z,63.95
2023-01-23T05:29:22.508Z,63.74
2023-01-23T05:32:01.397Z,63.55
2023-01-23T05:34:39.560Z,63.57
2023-01-23T05:37:34.644Z,62.92
2023-01-23T05:40:09.535Z,62.68
2023-01-23T05:43:07.561Z,62.58
2023-01-23T05:46:03.872Z,63.50
2023-01-23T05:48:54.558Z,63.61
2023-01-23T05:51:24.483Z,63.70
2023-01-23T05:53:54.688Z,64.11
2023-01-23T05:56:23.912Z,63.54
2023-01-23T05:59:11.190Z,63.80
2023-01-23T06:01:49.376Z,63.54
2023-01-23T06:04:55.740Z,63.61
2023-01-23T06:07:44.878Z,63.66
2023-01-23T06:10:14.016Z,63.58
2023-01-23T06:12:43.022Z,64.32
2023-01-23T06:15:12.511Z,64.57
2023-01-23T06:17:41.740Z,64.21
2023-01-23T06:20:13.004Z,64.00
2023-01-23T06:22:45.345Z,64.04
2023-01-23T06:25:15.665Z,64.07
2023-01-23T06:27:44.541Z,64.40
2023-01-23T06:30:15.395Z,64.61
2023-01-23T06:32:47.544Z,64.32
2023-01-23T06:35:21.262Z,63.85
2023-01-23T06:37:51.584Z,64.35
2023-01-23T06:40:22.279Z,64.50
2023-01-23T06:43:07.729Z,64.98
2023-01-23T06:45:36.858Z,64.84
2023-01-23T06:48:06.800Z,64.60
2023-01-23T06:50:35.817Z,64.74
2023-01-23T06:53:05.989Z,64.68
2023-01-23T06:55:35.211Z,64.77
2023-01-23T06:58:04.326Z,64.59
2023-01-23T07:00:37.400Z,64.34
2023-01-23T07:03:09.467Z,64.75
2023-01-23T07:05:41.844Z,64.41
2023-01-23T07:08:11.387Z,64.61
2023-01-23T07:10:40.681Z,64.33
2023-01-23T07:13:11.831Z,64.28
2023-01-23T07:15:41.377Z,64.18
2023-01-23T07:18:11.049Z,64.88
2023-01-23T07:20:40.219Z,64.72
2023-01-23T07:23:10.971Z,64.77
2023-01-23T07:25:40.914Z,64.80
2023-01-23T07:28:09.929Z,64.65
2023-01-23T07:30:38.964Z,64.69
2023-01-23T07:33:08.272Z,64.60
2023-01-23T07:35:40.095Z,64.78
2023-01-23T07:38:09.185Z,64.58
2023-01-23T07:40:39.617Z,64.63
2023-01-23T07:43:08.541Z,64.75
2023-01-23T07:45:38.677Z,64.75
2023-01-23T07:48:07.620Z,64.65
2023-01-23T07:50:38.709Z,64.93
2023-01-23T07:53:08.103Z,65.01
2023-01-23T07:55:39.447Z,65.00
2023-01-23T07:58:08.530Z,64.90
2023-01-23T08:00:38.610Z,64.79
2023-01-23T08:03:07.714Z,64.67
2023-01-23T08:05:36.778Z,65.01
2023-01-23T08:08:13.512Z,64.90
2023-01-23T08:10:43.339Z,64.91
2023-01-23T08:13:12.433Z,65.46
2023-01-23T08:15:41.563Z,64.99
2023-01-23T08:18:10.521Z,65.42
2023-01-23T08:20:39.560Z,65.03
2023-01-23T08:23:08.572Z,65.39
2023-01-23T08:25:39.543Z,65.13
2023-01-23T08:28:08.538Z,65.07
2023-01-23T08:30:38.316Z,65.52
2023-01-23T08:33:07.368Z,65.29
2023-01-23T08:35:36.391Z,65.10
2023-01-23T08:38:05.866Z,64.97
2023-01-23T08:40:34.798Z,65.25
2023-01-23T08:43:03.776Z,65.58
2023-01-23T08:45:32.828Z,65.46
2023-01-23T08:48:03.774Z,65.58
2023-01-23T08:50:32.659Z,65.33
2023-01-23T08:53:01.890Z,65.47
2023-01-23T08:55:33.001Z,65.56
2023-01-23T08:58:02.041Z,65.71
2023-01-23T09:00:31.843Z,65.30
2023-01-23T09:03:02.319Z,65.19
2023-01-23T09:05:31.931Z,65.58
2023-01-23T09:08:00.987Z,65.61
2023-01-23T09:10:29.920Z,65.83
2023-01-23T09:12:59.327Z,65.70
2023-01-23T09:15:28.309Z,65.62
2023-01-23T09:17:57.554Z,65.39
2023-01-23T09:20:27.440Z,65.50
2023-01-23T09:22:56.277Z,64.98
2023-01-23T09:25:25.273Z,65.48
2023-01-23T09:27:54.207Z,65.65
2023-01-23T09:30:23.299Z,65.32
2023-01-23T09:32:52.305Z,65.61
2023-01-23T09:35:21.411Z,65.67
2023-01-23T09:38:00.463Z,65.74
2023-01-23T09:40:50.992Z,65.68
2023-01-23T09:43:32.100Z,65.92
2023-01-23T09:46:31.616Z,65.72
2023-01-23T09:49:12.449Z,65.70
2023-01-23T09:51:59.820Z,65.76
2023-01-23T09:54:45.728Z,65.75
2023-01-23T09:57:26.281Z,65.85
2023-01-23T10:00:32.711Z,66.05
2023-01-23T10:03:05.463Z,66.05
2023-01-23T10:06:12.958Z,65.87
2023-01-23T10:09:18.259Z,65.94
2023-01-23T10:12:11.279Z,66.14
2023-01-23T10:14:58.829Z,65.92
2023-01-23T10:17:33.574Z,65.86
2023-01-23T10:20:22.513Z,66.17
2023-01-23T10:23:15.678Z,66.29
2023-01-23T10:25:44.924Z,65.98
2023-01-23T10:28:35.870Z,66.10
2023-01-23T10:31:12.039Z,66.29
2023-01-23T10:33:49.101Z,66.15
2023-01-23T10:36:47.471Z,66.20
2023-01-23T10:39:29.467Z,66.38
2023-01-23T10:42:02.373Z,66.20
2023-01-23T10:44:32.080Z,66.27
2023-01-23T10:47:05.781Z,66.66
2023-01-23T10:49:38.377Z,66.49
2023-01-23T10:52:38.990Z,66.63
2023-01-23T10:55:20.656Z,66.78
2023-01-23T10:57:55.825Z,66.71
2023-01-23T11:00:36.700Z,66.93
2023-01-23T11:03:30.846Z,66.96
2023-01-23T11:06:07.736Z,67.08
2023-01-23T11:08:39.564Z,67.50
2023-01-23T11:11:17.655Z,67.29
2023-01-23T11:13:48.986Z,67.24
2023-01-23T11:16:23.659Z,67.33
2023-01-23T11:19:23.595Z,67.59
2023-01-23T11:22:00.808Z,67.67
2023-01-23T11:24:41.731Z,67.63
2023-01-23T11:27:17.109Z,67.53
2023-01-23T11:30:01.633Z,67.20
2023-01-23T11:32:42.115Z,67.33
2023-01-23T11:35:22.539Z,67.55
2023-01-23T11:37:52.594Z,67.65
2023-01-23T11:40:21.747Z,67.46
2023-01-23T11:42:50.761Z,67.68
2023-01-23T11:45:28.451Z,67.77
2023-01-23T11:48:01.768Z,67.64
2023-01-23T11:50:55.727Z,67.90
2023-01-23T11:53:42.967Z,67.60
2023-01-23T11:56:42.350Z,67.64
2023-01-23T11:59:50.066Z,67.77
2023-01-23T12:02:53.528Z,67.80
2023-01-23T12:05:28.247Z,68.01
2023-01-23T12:08:15.213Z,68.12
2023-01-23T12:11:14.371Z,68.01
2023-01-23T12:14:16.226Z,67.94
2023-01-23T12:16:53.935Z,68.22
2023-01-23T12:19:31.679Z,68.07
2023-01-23T12:22:07.207Z,67.93
2023-01-23T12:24:39.137Z,68.14
2023-01-23T12:27:17.201Z,68.17
2023-01-23T12:30:34.434Z,68.26
2023-01-23T12:33:19.141Z,68.25
2023-01-23T12:36:09.600Z,68.21
2023-01-23T12:39:09.415Z,68.39
2023-01-23T12:41:54.716Z,68.28
2023-01-23T12:44:49.927Z,68.63
2023-01-23T12:47:39.471Z,68.43
2023-01-23T12:50:17.548Z,68.48
2023-01-23T12:53:09.844Z,68.53
2023-01-23T12:56:02.721Z,68.62
2023-01-23T12:58:37.010Z,68.68
2023-01-23T13:01:16.804Z,68.48
2023-01-23T13:04:03.916Z,68.56
2023-01-23T13:06:58.978Z,68.38
2023-01-23T13:10:07.372Z,68.52
2023-01-23T13:12:37.475Z,68.30
2023-01-23T13:15:31.041Z,68.62
2023-01-23T13:18:04.469Z,68.48
2023-01-23T13:20:54.410Z,68.48
2023-01-23T13:23:33.466Z,68.64
2023-01-23T13:26:29.601Z,68.74
2023-01-23T13:29:04.463Z,68.53
2023-01-23T13:31:50.914Z,68.77
2023-01-23T13:34:19.858Z,68.63
2023-01-23T13:36:50.278Z,68.57
2023-01-23T13:39:20.209Z,68.70
2023-01-23T13:42:12.516Z,68.72
2023-01-23T13:45:20.330Z,68.78
2023-01-23T14:20:40.961Z,69.02
2023-01-23T14:23:38.186Z,69.17
2023-01-23T14:26:12.018Z,69.29
2023-01-23T14:28:41.161Z,69.33
2023-01-23T14:31:29.417Z,69.36
2023-01-23T14:34:17.948Z,69.05
2023-01-23T14:36:52.164Z,69.21
2023-01-23T14:39:40.937Z,69.58
2023-01-23T14:42:32.731Z,69.30
2023-01-23T14:45:03.130Z,69.22
2023-01-23T14:47:47.126Z,69.33
2023-01-23T14:50:23.485Z,69.39
2023-01-23T14:53:01.091Z,69.63
2023-01-23T14:55:31.788Z,69.52
2023-01-23T14:58:01.610Z,69.05
2023-01-23T15:00:32.302Z,69.30
2023-01-23T15:03:01.543Z,69.39
2023-01-23T15:05:30.838Z,69.49
2023-01-23T15:08:03.726Z,69.63
2023-01-23T15:10:47.420Z,69.57
2023-01-23T15:13:36.082Z,69.42
2023-01-23T15:16:16.359Z,69.47
2023-01-23T15:18:59.948Z,69.38
2023-01-23T15:21:35.193Z,69.56
2023-01-23T15:24:10.256Z,69.61
2023-01-23T15:26:42.188Z,69.62
2023-01-23T15:29:11.032Z,69.64
2023-01-23T15:31:40.038Z,69.63
2023-01-23T15:34:15.065Z,69.72
2023-01-23T15:36:52.195Z,69.99
2023-01-23T15:39:23.496Z,69.72
2023-01-23T15:42:03.126Z,69.83
2023-01-23T15:44:33.956Z,69.57
2023-01-23T15:47:06.137Z,69.45
2023-01-23T15:49:37.643Z,69.67
2023-01-23T15:52:27.763Z,69.44
2023-01-23T15:55:08.063Z,69.50
2023-01-23T15:57:37.083Z,69.78
2023-01-23T16:00:20.471Z,69.51
2023-01-23T16:02:56.225Z,69.59
2023-01-23T16:05:28.889Z,69.60
2023-01-23T16:08:01.720Z,69.52
2023-01-23T16:10:36.631Z,69.49
2023-01-23T16:13:07.469Z,69.77
2023-01-23T16:15:37.727Z,69.47
2023-01-23T16:18:07.602Z,69.66
2023-01-23T16:20:39.608Z,70.01
2023-01-23T16:23:16.732Z,70.02
2023-01-23T16:25:46.586Z,69.77
2023-01-23T16:28:18.458Z,69.79
2023-01-23T16:30:48.574Z,70.14
2023-01-23T16:33:17.794Z,69.93
2023-01-23T16:35:47.641Z,70.16
2023-01-23T16:38:24.618Z,70.00
2023-01-23T16:40:55.903Z,70.02
2023-01-23T16:43:24.944Z,69.95
2023-01-23T16:45:56.272Z,69.81
2023-01-23T16:48:28.252Z,69.78
2023-01-23T16:51:02.173Z,69.69
2023-01-23T16:53:42.880Z,69.63
2023-01-23T16:56:35.968Z,69.84
2023-01-23T16:59:15.800Z,69.54
2023-01-23T17:01:48.704Z,70.26
2023-01-23T17:04:22.124Z,69.77
2023-01-23T17:06:51.581Z,70.08
2023-01-23T17:09:20.401Z,69.90
2023-01-23T17:11:57.106Z,70.23
2023-01-23T17:14:31.354Z,70.04
2023-01-23T17:17:08.200Z,70.06
2023-01-23T17:19:42.061Z,70.12
2023-01-23T17:22:33.227Z,70.40
2023-01-23T17:25:02.083Z,70.06
2023-01-23T17:27:41.685Z,70.24
2023-01-23T17:30:20.637Z,70.29
2023-01-23T17:32:58.459Z,70.29
2023-01-23T17:35:37.063Z,70.33
2023-01-23T17:38:07.459Z,70.18
2023-01-23T17:40:36.274Z,70.26
2023-01-23T17:43:05.359Z,70.09
2023-01-23T17:45:34.372Z,70.14
2023-01-23T17:48:03.387Z,70.25
2023-01-23T17:50:32.515Z,70.07
2023-01-23T17:53:01.480Z,70.12
2023-01-23T17:55:33.082Z,70.19
2023-01-23T17:58:02.265Z,70.11
2023-01-23T18:00:32.456Z,70.44
2023-01-23T18:03:03.976Z,70.20
2023-01-23T18:05:36.544Z,70.32
2023-01-23T18:08:05.971Z,70.03
2023-01-23T18:10:35.966Z,70.27
2023-01-23T18:13:14.245Z,70.33
2023-01-23T18:15:46.180Z,70.52
2023-01-23T18:18:34.791Z,70.45
2023-01-23T18:21:06.669Z,70.22
2023-01-23T18:23:37.335Z,70.38
2023-01-23T18:26:23.952Z,70.15
2023-01-23T18:29:04.375Z,70.29
2023-01-23T18:31:52.722Z,70.39
2023-01-23T18:34:52.633Z,70.19
2023-01-23T18:37:39.833Z,70.18
2023-01-23T18:40:30.103Z,70.26
2023-01-23T18:43:30.835Z,70.35
2023-01-23T18:46:00.065Z,70.57
2023-01-23T18:48:29.448Z,70.38
2023-01-23T18:51:36.865Z,70.46
2023-01-23T18:54:33.590Z,70.33
2023-01-23T18:57:20.485Z,70.59
2023-01-23T19:00:13.535Z,70.47
2023-01-23T19:02:56.882Z,70.47
2023-01-23T19:05:34.358Z,70.51
2023-01-23T19:08:03.703Z,70.90
2023-01-23T19:10:48.151Z,70.82
2023-01-23T19:13:25.439Z,70.86
2023-01-23T19:16:02.638Z,70.63
2023-01-23T19:18:39.847Z,70.52
2023-01-23T19:21:17.055Z,70.58
2023-01-23T19:24:01.616Z,70.48
2023-01-23T19:26:35.946Z,70.61
2023-01-23T19:29:20.633Z,70.82
2023-01-23T19:32:07.242Z,70.89
2023-01-23T19:34:36.102Z,70.40
2023-01-23T19:37:05.560Z,70.60
2023-01-23T19:39:34.524Z,70.50
2023-01-23T19:42:04.297Z,70.36
2023-01-23T19:44:34.146Z,70.37
2023-01-23T19:47:04.087Z,70.69
2023-01-23T19:49:33.000Z,70.67
2023-01-23T19:52:02.540Z,70.68
2023-01-23T19:54:31.467Z,70.28
2023-01-23T19:57:00.408Z,70.55
2023-01-23T19:59:29.436Z,70.55
2023-01-23T20:01:59.299Z,70.74
2023-01-23T20:04:28.484Z,70.90
2023-01-23T20:06:57.399Z,70.70
2023-01-23T20:09:26.282Z,70.68
2023-01-23T20:11:55.164Z,70.90
2023-01-23T20:14:25.644Z,70.58
2023-01-23T20:16:54.842Z,70.77
2023-01-23T20:19:24.301Z,70.77
2023-01-23T20:21:53.188Z,70.72
2023-01-23T20:24:22.081Z,70.89
2023-01-23T20:26:50.977Z,70.97
2023-01-23T20:29:19.882Z,70.91
2023-01-23T20:31:48.926Z,70.93
2023-01-23T20:34:18.238Z,70.79
2023-01-23T20:36:47.109Z,70.94
2023-01-23T20:39:16.227Z,70.79
2023-01-23T20:41:45.062Z,70.85
2023-01-23T20:44:13.961Z,71.00
2023-01-23T20:46:42.795Z,70.84
2023-01-23T20:49:15.008Z,70.85
2023-01-23T20:51:43.913Z,70.65
2023-01-23T20:54:12.800Z,70.81
2023-01-23T20:56:41.794Z,70.75
2023-01-23T20:59:19.710Z,70.77
2023-01-23T21:02:08.202Z,71.02
2023-01-23T21:04:38.117Z,70.83
2023-01-23T21:07:06.941Z,71.17
2023-01-23T21:09:35.825Z,70.82
2023-01-23T21:12:04.936Z,70.83
2023-01-23T21:14:33.824Z,70.83
2023-01-23T21:17:03.024Z,70.88
2023-01-23T21:19:33.172Z,70.91
2023-01-23T21:22:02.176Z,70.88
2023-01-23T21:24:34.931Z,70.68
2023-01-23T21:27:05.154Z,70.68
2023-01-23T21:29:34.807Z,71.27
2023-01-23T21:32:03.704Z,70.81
2023-01-23T21:34:32.762Z,71.14
2023-01-23T21:37:01.690Z,71.15
2023-01-23T21:39:30.662Z,71.09
2023-01-23T21:41:59.541Z,70.92
2023-01-23T21:44:28.718Z,71.09
2023-01-23T21:46:57.532Z,71.02
2023-01-23T21:49:26.448Z,70.99
2023-01-23T21:51:55.315Z,71.02
2023-01-23T21:54:24.542Z,71.43
2023-01-23T21:56:53.491Z,71.00
2023-01-23T21:59:22.422Z,71.04
2023-01-23T22:01:52.277Z,71.05
2023-01-23T22:04:24.881Z,71.09
2023-01-23T22:06:56.336Z,71.27
2023-01-23T22:09:26.666Z,71.31
2023-01-23T22:11:56.383Z,71.20
2023-01-23T22:14:25.465Z,71.26
2023-01-23T22:16:54.370Z,71.45
2023-01-23T22:19:25.757Z,71.61
2023-01-23T22:21:55.885Z,71.62
2023-01-23T22:24:24.802Z,71.15
2023-01-23T22:26:53.778Z,71.73
2023-01-23T22:29:23.607Z,71.36
2023-01-23T22:31:53.085Z,71.55
2023-01-23T22:34:22.841Z,71.42
2023-01-23T22:36:52.279Z,71.49
2023-01-23T22:39:21.626Z,71.49
2023-01-23T22:41:53.503Z,71.38
2023-01-23T22:44:22.424Z,71.23
2023-01-23T22:46:52.235Z,71.32
2023-01-23T22:49:21.961Z,71.14
2023-01-23T22:51:52.635Z,71.32
2023-01-23T22:54:21.561Z,71.47
2023-01-23T22:56:50.386Z,71.48
2023-01-23T22:59:19.135Z,71.53
2023-01-23T23:01:48.507Z,71.39
2023-01-23T23:04:17.536Z,71.99
2023-01-23T23:06:46.508Z,71.72
2023-01-23T23:09:15.355Z,71.62
2023-01-23T23:11:45.288Z,71.87
2023-01-23T23:14:14.082Z,71.70
2023-01-23T23:16:42.884Z,71.84
2023-01-23T23:19:13.049Z,71.94
2023-01-23T23:21:42.067Z,71.85
2023-01-23T23:24:14.569Z,71.86
2023-01-23T23:26:43.467Z,71.88
2023-01-23T23:29:12.370Z,72.05
2023-01-23T23:31:41.657Z,72.19
2023-01-23T23:34:10.637Z,71.70
2023-01-23T23:36:39.988Z,71.40
2023-01-23T23:39:08.889Z,71.74
2023-01-23T23:41:37.971Z,71.75
2023-01-23T23:44:06.914Z,71.75
2023-01-23T23:46:35.853Z,71.54
2023-01-23T23:49:04.728Z,71.68
2023-01-23T23:51:33.622Z,72.17
2023-01-23T23:54:02.628Z,72.07
2023-01-23T23:56:32.797Z,71.80
2023-01-23T23:59:01.685Z,71.71
